createdAt,value
2018-08-07T00:00:19.399Z,84.60
2018-08-07T00:02:49.123Z,85.00
2018-08-07T00:05:17.644Z,85.20
2018-08-07T00:07:47.952Z,85.30
2018-08-07T00:10:18.374Z,85.60
2018-08-07T00:12:46.650Z,86.10
2018-08-07T00:15:15.977Z,86.50
2018-08-07T00:17:44.214Z,87.00
2018-08-07T00:20:14.814Z,87.60
2018-08-07T00:22:43.627Z,87.70
2018-08-07T00:25:12.534Z,88.70
2018-08-07T00:27:41.120Z,88.70
2018-08-07T00:30:11.614Z,89.00
2018-08-07T00:35:12.257Z,89.50
2018-08-07T00:37:40.824Z,89.50
2018-08-07T00:40:12.431Z,89.50
2018-08-07T00:42:42.118Z,89.70
2018-08-07T00:45:14.394Z,90.00
2018-08-07T00:47:42.733Z,90.00
2018-08-07T00:50:13.947Z,90.20
2018-08-07T00:52:42.345Z,90.40
2018-08-07T00:55:10.957Z,90.30
2018-08-07T00:57:39.260Z,90.70
2018-08-07T01:00:10.013Z,90.00
2018-08-07T01:02:38.548Z,89.70
2018-08-07T01:05:10.023Z,90.30
2018-08-07T01:07:38.380Z,90.00
2018-08-07T01:10:08.401Z,90.60
2018-08-07T01:12:37.826Z,90.70
2018-08-07T01:15:08.067Z,91.10
2018-08-07T01:17:36.281Z,91.10
2018-08-07T01:20:07.886Z,91.20
2018-08-07T01:22:36.565Z,91.00
2018-08-07T01:25:06.569Z,91.40
2018-08-07T01:27:39.205Z,91.00
2018-08-07T01:30:10.170Z,91.50
2018-08-07T01:35:07.727Z,90.80
2018-08-07T01:37:36.554Z,91.20
2018-08-07T01:40:07.264Z,91.40
2018-08-07T01:42:38.410Z,91.80
2018-08-07T01:45:07.404Z,91.60
2018-08-07T01:47:35.648Z,91.40
2018-08-07T01:50:05.002Z,91.40
2018-08-07T01:52:33.232Z,91.70
2018-08-07T01:55:01.440Z,91.80
2018-08-07T01:57:30.447Z,92.10
2018-08-07T01:59:59.951Z,91.90
2018-08-07T02:02:28.207Z,92.30
2018-08-07T02:04:56.536Z,92.10
2018-08-07T02:09:53.608Z,92.50
2018-08-07T02:12:21.800Z,92.60
2018-08-07T02:14:50.282Z,93.10
2018-08-07T02:17:18.501Z,93.60
2018-08-07T02:19:46.763Z,93.40
2018-08-07T02:22:15.228Z,93.90
2018-08-07T02:24:43.511Z,94.50
2018-08-07T02:27:11.736Z,94.40
2018-08-07T02:29:39.992Z,94.40
2018-08-07T02:32:08.292Z,94.50
2018-08-07T02:34:37.761Z,94.80
2018-08-07T02:37:05.970Z,95.00
2018-08-07T02:39:34.628Z,95.70
2018-08-07T02:42:03.543Z,95.90
2018-08-07T02:44:31.764Z,96.00
2018-08-07T02:47:00.025Z,95.70
2018-08-07T02:49:28.216Z,95.70
2018-08-07T02:51:56.474Z,96.40
2018-08-07T02:54:25.272Z,96.60
2018-08-07T02:56:54.117Z,96.90
2018-08-07T02:59:25.804Z,97.10
2018-08-07T03:04:24.595Z,98.10
2018-08-07T03:06:52.834Z,98.50
2018-08-07T03:09:21.112Z,98.80
2018-08-07T03:11:49.461Z,99.20
2018-08-07T03:14:22.494Z,99.40
2018-08-07T03:16:51.335Z,99.90
2018-08-07T03:19:20.568Z,99.90
2018-08-07T03:21:49.426Z,99.90
2018-08-07T03:29:16.230Z,99.90
2018-08-07T03:31:49.062Z,99.90
2018-08-07T03:34:18.569Z,99.90
2018-08-07T03:36:46.835Z,99.90
2018-08-07T03:39:16.038Z,99.90
2018-08-07T03:41:44.880Z,99.90
2018-08-07T03:44:17.706Z,99.70
2018-08-07T03:46:46.719Z,99.90
2018-08-07T03:51:43.991Z,99.80
2018-08-07T03:54:12.236Z,99.60
2018-08-07T03:56:40.456Z,99.90
2018-08-07T03:59:08.731Z,99.90
2018-08-07T04:01:37.479Z,99.90
2018-08-07T04:04:06.554Z,99.90
2018-08-07T04:06:34.750Z,99.90
2018-08-07T04:09:03.935Z,99.90
2018-08-07T04:11:32.570Z,99.90
2018-08-07T04:14:01.759Z,99.90
2018-08-07T04:16:33.209Z,99.90
2018-08-07T04:19:02.674Z,99.90
2018-08-07T04:23:59.728Z,99.90
2018-08-07T04:26:28.248Z,99.90
2018-08-07T04:28:57.503Z,99.90
2018-08-07T04:31:29.532Z,99.90
2018-08-07T04:33:57.760Z,99.90
2018-08-07T04:36:27.053Z,99.90
2018-08-07T04:38:55.272Z,99.90
2018-08-07T04:41:23.536Z,99.90
2018-08-07T04:43:52.531Z,99.90
2018-08-07T04:46:20.770Z,99.90
2018-08-07T04:48:49.004Z,99.90
2018-08-07T04:51:17.282Z,99.90
2018-08-07T04:53:45.520Z,99.90
2018-08-07T04:56:13.756Z,99.70
2018-08-07T04:58:41.987Z,99.20
2018-08-07T05:01:16.203Z,98.40
2018-08-07T05:03:44.714Z,98.20
2018-08-07T05:06:13.087Z,98.30
2018-08-07T05:08:42.824Z,98.20
2018-08-07T05:11:11.090Z,98.30
2018-08-07T05:13:39.320Z,96.80
2018-08-07T05:16:11.092Z,96.60
2018-08-07T05:21:07.980Z,97.60
2018-08-07T05:23:36.308Z,98.30
2018-08-07T05:26:05.407Z,98.50
2018-08-07T05:28:34.175Z,98.60
2018-08-07T05:31:11.392Z,98.20
2018-08-07T05:33:39.597Z,98.00
2018-08-07T05:36:07.848Z,97.80
2018-08-07T05:38:36.249Z,97.60
2018-08-07T05:41:04.516Z,97.80
2018-08-07T05:43:33.890Z,97.20
2018-08-07T05:46:02.130Z,96.60
2018-08-07T05:48:31.303Z,95.10
2018-08-07T05:50:59.850Z,94.50
2018-08-07T05:53:28.083Z,93.90
2018-08-07T05:55:56.330Z,92.90
2018-08-07T05:58:29.572Z,92.00
2018-08-07T06:00:57.852Z,90.70
2018-08-07T06:03:26.103Z,88.00
2018-08-07T06:05:55.247Z,84.10
2018-08-07T06:08:24.991Z,79.30
2018-08-07T06:10:53.401Z,76.50
2018-08-07T06:13:21.610Z,76.10
2018-08-07T06:15:49.845Z,75.10
2018-08-07T06:18:18.116Z,75.80
2018-08-07T06:20:46.395Z,74.90
2018-08-07T06:23:15.367Z,73.70
2018-08-07T06:25:44.039Z,73.60
2018-08-07T06:28:12.224Z,74.00
2018-08-07T06:30:40.473Z,75.30
2018-08-07T06:33:12.020Z,76.10
2018-08-07T06:35:40.219Z,77.90
2018-08-07T06:38:08.859Z,78.80
2018-08-07T06:40:37.135Z,79.50
2018-08-07T06:43:05.557Z,80.70
2018-08-07T06:45:33.746Z,80.30
2018-08-07T06:48:02.047Z,81.60
2018-08-07T06:50:30.234Z,81.00
2018-08-07T06:52:59.413Z,80.40
2018-08-07T06:55:28.575Z,80.90
2018-08-07T06:57:56.883Z,81.20
2018-08-07T07:00:26.373Z,82.00
2018-08-07T07:02:56.113Z,81.10
2018-08-07T07:05:24.427Z,81.30
2018-08-07T07:07:53.596Z,81.60
2018-08-07T07:10:21.824Z,81.70
2018-08-07T07:15:19.684Z,81.20
2018-08-07T07:17:49.006Z,80.70
2018-08-07T07:20:18.343Z,80.60
2018-08-07T07:22:47.567Z,80.50
2018-08-07T07:25:16.249Z,80.50
2018-08-07T07:27:44.493Z,80.50
2018-08-07T07:30:19.370Z,80.50
2018-08-07T07:32:49.695Z,80.30
2018-08-07T07:35:22.398Z,80.10
2018-08-07T07:37:50.883Z,79.90
2018-08-07T07:40:19.142Z,79.90
2018-08-07T07:42:47.411Z,78.90
2018-08-07T07:45:17.157Z,79.20
2018-08-07T07:47:45.612Z,79.30
2018-08-07T07:50:15.941Z,78.80
2018-08-07T07:52:45.098Z,79.70
2018-08-07T07:55:14.525Z,79.40
2018-08-07T07:57:42.784Z,80.00
2018-08-07T08:00:13.886Z,79.30
2018-08-07T08:02:42.176Z,78.90
2018-08-07T08:05:14.576Z,78.90
2018-08-07T08:07:42.996Z,79.20
2018-08-07T08:10:11.955Z,78.80
2018-08-07T08:12:40.254Z,78.20
2018-08-07T08:15:13.856Z,78.20
2018-08-07T08:17:43.195Z,77.20
2018-08-07T08:20:14.546Z,77.30
2018-08-07T08:22:43.159Z,77.40
2018-08-07T08:25:11.637Z,77.30
2018-08-07T08:27:40.296Z,77.10
2018-08-07T08:30:11.522Z,76.50
2018-08-07T08:32:39.816Z,76.20
2018-08-07T08:35:10.890Z,76.10
2018-08-07T08:37:39.726Z,76.20
2018-08-07T08:40:10.739Z,76.10
2018-08-07T08:42:40.399Z,74.50
2018-08-07T08:47:39.276Z,74.60
2018-08-07T08:50:12.666Z,73.80
2018-08-07T08:52:41.487Z,73.90
2018-08-07T08:57:40.755Z,73.70
2018-08-07T09:00:25.006Z,72.90
2018-08-07T09:02:53.951Z,73.30
2018-08-07T09:05:23.570Z,73.40
2018-08-07T09:07:52.033Z,71.40
2018-08-07T09:10:29.489Z,71.90
2018-08-07T09:17:54.084Z,71.50
2018-08-07T09:20:24.167Z,71.10
2018-08-07T09:22:52.725Z,70.80
2018-08-07T09:25:21.785Z,70.40
2018-08-07T09:27:49.886Z,70.20
2018-08-07T09:30:23.236Z,70.20
2018-08-07T09:32:52.772Z,70.10
2018-08-07T09:35:24.904Z,69.60
2018-08-07T09:37:53.436Z,69.90
2018-08-07T09:40:22.373Z,70.50
2018-08-07T09:42:51.988Z,69.70
2018-08-07T09:45:23.807Z,70.50
2018-08-07T09:47:52.119Z,70.80
2018-08-07T09:52:53.896Z,70.40
2018-08-07T09:55:22.204Z,70.00
2018-08-07T09:57:50.429Z,69.30
2018-08-07T10:00:25.081Z,69.30
2018-08-07T10:02:59.089Z,68.40
2018-08-07T10:05:28.784Z,67.70
2018-08-07T10:07:56.969Z,66.80
2018-08-07T10:10:25.604Z,66.50
2018-08-07T10:12:53.838Z,65.60
2018-08-07T10:15:24.453Z,65.50
2018-08-07T10:17:52.891Z,65.00
2018-08-07T10:20:21.159Z,65.50
2018-08-07T10:22:49.927Z,65.70
2018-08-07T10:25:19.575Z,64.90
2018-08-07T10:27:49.239Z,65.40
2018-08-07T10:30:19.849Z,64.40
2018-08-07T10:32:49.596Z,63.90
2018-08-07T10:35:17.863Z,64.00
2018-08-07T10:37:46.616Z,63.10
2018-08-07T10:40:16.487Z,62.60
2018-08-07T10:42:44.735Z,62.90
2018-08-07T10:45:14.525Z,61.00
2018-08-07T10:47:42.803Z,60.80
2018-08-07T10:50:14.205Z,60.90
2018-08-07T10:52:42.508Z,61.00
2018-08-07T10:55:10.868Z,61.20
2018-08-07T10:57:41.123Z,60.00
2018-08-07T11:00:16.953Z,60.10
2018-08-07T11:02:46.807Z,59.10
2018-08-07T11:05:15.263Z,57.80
2018-08-07T11:07:48.109Z,57.40
2018-08-07T11:10:17.177Z,57.30
2018-08-07T11:12:45.478Z,56.60
2018-08-07T11:15:31.439Z,57.30
2018-08-07T11:18:00.680Z,58.30
2018-08-07T11:20:30.592Z,58.80
2018-08-07T11:23:04.085Z,57.40
2018-08-07T11:25:32.991Z,58.10
2018-08-07T11:28:01.504Z,56.00
2018-08-07T11:30:30.273Z,56.30
2018-08-07T11:32:59.814Z,57.40
2018-08-07T11:35:28.408Z,57.60
2018-08-07T11:38:01.520Z,57.50
2018-08-07T11:40:30.066Z,56.80
2018-08-07T11:42:58.857Z,56.30
2018-08-07T11:45:28.874Z,56.20
2018-08-07T11:47:57.260Z,55.60
2018-08-07T11:52:59.978Z,55.50
2018-08-07T11:55:28.207Z,55.50
2018-08-07T11:57:56.943Z,56.40
2018-08-07T12:00:31.510Z,56.50
2018-08-07T12:02:59.845Z,56.30
2018-08-07T12:05:28.278Z,56.10
2018-08-07T12:07:57.157Z,56.70
2018-08-07T12:10:25.557Z,55.90
2018-08-07T12:12:53.888Z,55.70
2018-08-07T12:15:24.398Z,54.20
2018-08-07T12:17:53.106Z,55.10
2018-08-07T12:20:21.342Z,54.90
2018-08-07T12:22:54.048Z,55.10
2018-08-07T12:25:22.610Z,54.50
2018-08-07T12:27:50.863Z,55.00
2018-08-07T12:30:24.810Z,53.90
2018-08-07T12:32:53.155Z,54.20
2018-08-07T12:35:21.410Z,54.20
2018-08-07T12:37:52.428Z,54.00
2018-08-07T12:40:23.774Z,54.50
2018-08-07T12:42:53.705Z,53.60
2018-08-07T12:45:21.924Z,53.20
2018-08-07T12:47:50.480Z,53.70
2018-08-07T12:50:19.076Z,53.10
2018-08-07T12:52:47.335Z,51.80
2018-08-07T12:55:17.451Z,52.30
2018-08-07T12:57:46.152Z,52.30
2018-08-07T13:00:17.888Z,51.90
2018-08-07T13:02:46.119Z,51.80
2018-08-07T13:05:14.361Z,52.40
2018-08-07T13:07:42.685Z,52.90
2018-08-07T13:10:13.348Z,52.80
2018-08-07T13:12:42.340Z,52.60
2018-08-07T13:15:12.080Z,52.50
2018-08-07T13:17:40.788Z,54.70
2018-08-07T13:20:10.386Z,55.80
2018-08-07T13:22:39.459Z,56.20
2018-08-07T13:25:09.783Z,56.80
2018-08-07T13:27:38.239Z,56.70
2018-08-07T13:30:12.172Z,57.40
2018-08-07T13:32:40.848Z,58.10
2018-08-07T13:35:09.106Z,57.50
2018-08-07T13:37:37.486Z,57.30
2018-08-07T13:40:07.840Z,56.80
2018-08-07T13:42:36.293Z,57.50
2018-08-07T13:45:06.624Z,57.80
2018-08-07T13:47:34.890Z,56.40
2018-08-07T13:50:03.355Z,56.80
2018-08-07T13:52:32.211Z,56.50
2018-08-07T13:55:03.457Z,57.30
2018-08-07T13:57:32.633Z,56.90
2018-08-07T14:00:00.856Z,56.40
2018-08-07T14:02:29.371Z,55.70
2018-08-07T14:04:58.002Z,56.50
2018-08-07T14:07:26.644Z,55.40
2018-08-07T14:09:59.220Z,56.70
2018-08-07T14:14:56.339Z,55.60
2018-08-07T14:17:24.932Z,55.10
2018-08-07T14:19:53.954Z,55.90
2018-08-07T14:22:23.020Z,55.30
2018-08-07T14:24:51.231Z,55.00
2018-08-07T14:27:24.603Z,54.50
2018-08-07T14:29:53.747Z,55.00
2018-08-07T14:32:21.963Z,54.50
2018-08-07T14:34:50.268Z,54.90
2018-08-07T14:37:18.515Z,55.80
2018-08-07T14:39:54.312Z,55.50
2018-08-07T14:42:22.547Z,56.10
2018-08-07T14:44:50.843Z,56.00
2018-08-07T14:47:19.384Z,56.40
2018-08-07T14:49:47.583Z,56.80
2018-08-07T14:52:15.835Z,57.80
2018-08-07T14:57:13.411Z,57.60
2018-08-07T14:59:41.690Z,57.50
2018-08-07T15:02:09.955Z,57.70
2018-08-07T15:04:39.001Z,58.00
2018-08-07T15:07:07.259Z,58.00
2018-08-07T15:09:36.475Z,58.10
2018-08-07T15:12:08.433Z,58.30
2018-08-07T15:14:36.717Z,58.70
2018-08-07T15:17:05.811Z,58.90
2018-08-07T15:19:34.475Z,58.90
2018-08-07T15:22:02.903Z,58.90
2018-08-07T15:24:31.184Z,59.40
2018-08-07T15:26:59.554Z,59.40
2018-08-07T15:29:27.780Z,60.40
2018-08-07T15:31:56.676Z,59.80
2018-08-07T15:34:25.091Z,60.40
2018-08-07T15:39:21.846Z,59.70
2018-08-07T15:41:50.662Z,60.00
2018-08-07T15:44:18.955Z,59.90
2018-08-07T15:46:47.781Z,59.40
2018-08-07T15:49:16.069Z,59.20
2018-08-07T15:51:44.304Z,59.30
2018-08-07T16:03:52.927Z,59.10
2018-08-07T16:06:21.167Z,58.80
2018-08-07T16:08:49.425Z,58.00
2018-08-07T16:11:21.714Z,57.40
2018-08-07T16:13:50.843Z,56.80
2018-08-07T16:16:19.044Z,55.80
2018-08-07T16:18:47.298Z,55.10
2018-08-07T16:21:15.932Z,55.70
2018-08-07T16:23:44.236Z,54.20
2018-08-07T16:26:12.494Z,53.80
2018-08-07T16:28:40.743Z,53.70
2018-08-07T16:31:08.947Z,53.00
2018-08-07T16:33:37.223Z,52.70
2018-08-07T16:36:05.639Z,52.40
2018-08-07T16:38:33.968Z,52.70
2018-08-07T16:41:02.194Z,53.40
2018-08-07T16:43:30.528Z,53.70
2018-08-07T16:45:58.835Z,53.00
2018-08-07T16:48:27.105Z,53.30
2018-08-07T16:50:55.299Z,54.00
2018-08-07T16:53:23.603Z,54.50
2018-08-07T16:55:51.781Z,55.00
2018-08-07T16:58:20.023Z,55.10
2018-08-07T17:00:48.293Z,55.30
2018-08-07T17:03:17.324Z,55.60
2018-08-07T17:05:45.542Z,55.60
2018-08-07T17:08:14.131Z,55.80
2018-08-07T17:10:42.373Z,56.10
2018-08-07T17:13:14.471Z,55.80
2018-08-07T17:15:42.724Z,56.30
2018-08-07T17:18:10.984Z,56.70
2018-08-07T17:20:39.788Z,56.50
2018-08-07T17:23:07.983Z,55.60
2018-08-07T17:25:36.240Z,55.20
2018-08-07T17:28:07.748Z,54.70
2018-08-07T17:30:36.065Z,54.50
2018-08-07T17:33:04.986Z,55.20
2018-08-07T17:35:33.291Z,54.50
2018-08-07T17:38:01.590Z,54.50
2018-08-07T17:40:30.027Z,55.00
2018-08-07T17:45:30.342Z,56.30
2018-08-07T17:47:58.628Z,56.80
2018-08-07T17:50:27.118Z,57.60
2018-08-07T17:52:56.997Z,58.30
2018-08-07T17:55:25.407Z,59.30
2018-08-07T17:57:54.587Z,59.20
2018-08-07T18:00:24.595Z,59.70
2018-08-07T18:02:52.816Z,60.40
2018-08-07T18:05:21.087Z,61.20
2018-08-07T18:07:51.213Z,61.40
2018-08-07T18:10:21.370Z,61.50
2018-08-07T18:15:19.971Z,62.00
2018-08-07T18:17:48.884Z,62.30
2018-08-07T18:20:19.212Z,62.30
2018-08-07T18:22:47.777Z,63.40
2018-08-07T18:25:16.063Z,63.20
2018-08-07T18:27:44.344Z,64.10
2018-08-07T18:30:14.156Z,64.20
2018-08-07T18:32:42.768Z,64.70
2018-08-07T18:35:13.588Z,65.10
2018-08-07T18:37:41.785Z,65.80
2018-08-07T18:40:10.915Z,65.20
2018-08-07T18:42:39.131Z,65.70
2018-08-07T18:45:10.195Z,66.70
2018-08-07T18:47:39.237Z,66.30
2018-08-07T18:50:09.556Z,66.60
2018-08-07T18:52:37.954Z,67.00
2018-08-07T18:55:08.489Z,67.00
2018-08-07T18:57:36.748Z,67.30
2018-08-07T19:00:07.250Z,68.00
2018-08-07T19:02:36.136Z,68.60
2018-08-07T19:05:06.104Z,68.30
2018-08-07T19:07:34.310Z,68.30
2018-08-07T19:10:02.592Z,68.00
2018-08-07T19:12:32.113Z,68.70
2018-08-07T19:15:00.366Z,69.10
2018-08-07T19:17:29.195Z,69.40
2018-08-07T19:20:01.992Z,69.70
2018-08-07T19:22:31.636Z,69.50
2018-08-07T19:25:00.925Z,70.20
2018-08-07T19:27:29.679Z,71.00
2018-08-07T19:29:58.188Z,71.70
2018-08-07T19:32:27.053Z,70.70
2018-08-07T19:34:55.287Z,69.10
2018-08-07T19:37:23.572Z,69.20
2018-08-07T19:39:54.306Z,69.00
2018-08-07T19:42:26.166Z,68.30
2018-08-07T19:44:55.283Z,68.70
2018-08-07T19:47:28.081Z,69.10
2018-08-07T19:49:56.371Z,69.40
2018-08-07T19:52:25.867Z,70.20
2018-08-07T19:55:00.713Z,71.40
2018-08-07T19:57:29.936Z,72.50
2018-08-07T19:59:58.880Z,72.80
2018-08-07T20:02:27.569Z,74.50
2018-08-07T20:04:57.020Z,75.20
2018-08-07T20:07:25.291Z,75.40
2018-08-07T20:09:53.575Z,75.40
2018-08-07T20:14:49.960Z,76.60
2018-08-07T20:17:18.865Z,77.30
2018-08-07T20:19:47.220Z,78.00
2018-08-07T20:22:16.408Z,78.10
2018-08-07T20:24:44.962Z,78.50
2018-08-07T20:27:13.277Z,78.60
2018-08-07T20:29:41.579Z,79.20
2018-08-07T20:32:13.851Z,81.00
2018-08-07T20:34:42.169Z,81.90
2018-08-07T20:37:10.441Z,82.10
2018-08-07T20:39:38.772Z,82.20
2018-08-07T20:42:08.021Z,82.20
2018-08-07T20:44:37.479Z,82.30
2018-08-07T20:47:06.796Z,82.30
2018-08-07T20:49:36.316Z,81.30
2018-08-07T20:52:05.508Z,81.40
2018-08-07T20:54:34.511Z,81.40
2018-08-07T20:57:02.774Z,81.60
2018-08-07T20:59:31.453Z,82.50
2018-08-07T21:02:00.400Z,81.10
2018-08-07T21:04:28.645Z,81.10
2018-08-07T21:06:56.970Z,81.20
2018-08-07T21:09:25.203Z,81.10
2018-08-07T21:11:53.513Z,80.60
2018-08-07T21:14:22.366Z,80.60
2018-08-07T21:16:54.716Z,80.90
2018-08-07T21:19:23.299Z,80.60
2018-08-07T21:21:51.575Z,81.10
2018-08-07T21:24:21.039Z,81.40
2018-08-07T21:26:49.971Z,81.60
2018-08-07T21:29:18.860Z,81.40
2018-08-07T21:31:51.420Z,80.80
2018-08-07T21:34:19.823Z,80.30
2018-08-07T21:36:49.073Z,80.20
2018-08-07T21:39:17.320Z,80.80
2018-08-07T21:41:46.005Z,81.70
2018-08-07T21:44:14.244Z,82.10
2018-08-07T21:46:42.757Z,82.90
2018-08-07T21:49:12.470Z,83.50
2018-08-07T21:51:41.083Z,82.60
2018-08-07T21:54:09.296Z,83.10
2018-08-07T21:56:37.528Z,83.60
2018-08-07T22:01:34.908Z,82.00
2018-08-07T22:04:07.347Z,82.70
2018-08-07T22:06:36.570Z,82.70
2018-08-07T22:09:07.443Z,81.50
2018-08-07T22:14:05.132Z,81.70
2018-08-07T22:16:33.575Z,81.60
2018-08-07T22:19:04.561Z,82.20
2018-08-07T22:21:32.790Z,83.90
2018-08-07T22:26:29.639Z,82.90
2018-08-07T22:28:58.755Z,83.10
2018-08-07T22:31:27.079Z,83.60
2018-08-07T22:33:55.237Z,84.10
2018-08-07T22:36:23.428Z,84.50
2018-08-07T22:38:52.496Z,84.90
2018-08-07T22:41:21.571Z,84.50
2018-08-07T22:46:17.861Z,84.70
2018-08-07T22:48:46.091Z,84.50
2018-08-07T22:51:14.557Z,83.70
2018-08-07T22:56:11.864Z,82.50
2018-08-07T22:58:41.378Z,82.30
2018-08-07T23:01:09.615Z,82.20
2018-08-07T23:03:41.033Z,82.10
2018-08-07T23:06:09.224Z,81.80
2018-08-07T23:08:37.506Z,82.70
2018-08-07T23:11:06.608Z,83.70
2018-08-07T23:13:35.017Z,84.00
2018-08-07T23:16:03.237Z,84.20
2018-08-07T23:18:35.474Z,84.00
2018-08-07T23:21:03.737Z,82.80
2018-08-07T23:23:31.971Z,82.30
2018-08-07T23:26:00.161Z,82.00
2018-08-07T23:28:28.401Z,82.00
2018-08-07T23:30:56.635Z,82.70
2018-08-07T23:33:24.896Z,82.60
2018-08-07T23:35:53.107Z,83.80
2018-08-07T23:38:21.300Z,85.20
2018-08-07T23:40:49.519Z,85.40
2018-08-07T23:43:18.223Z,85.50
2018-08-07T23:45:46.709Z,86.60
2018-08-07T23:48:15.799Z,87.20
2018-08-07T23:50:44.288Z,86.90
2018-08-07T23:53:12.511Z,86.90
2018-08-07T23:55:40.859Z,86.70
2018-08-07T23:58:09.063Z,86.60
